createdAt,value
2023-02-11T00:01:47.050Z,0.29
2023-02-11T00:04:49.571Z,0.29
2023-02-11T00:07:52.102Z,0.53
2023-02-11T00:10:56.122Z,0.54
2023-02-11T00:14:00.414Z,0.63
2023-02-11T00:17:02.748Z,0.68
2023-02-11T00:20:08.166Z,0.50
2023-02-11T00:23:10.860Z,0.27
2023-02-11T00:26:17.712Z,0.02
2023-02-11T00:29:20.666Z,0.02
2023-02-11T00:32:23.007Z,0.07
2023-02-11T00:35:26.020Z,-0.19
2023-02-11T00:38:28.254Z,-0.12
2023-02-11T00:41:31.164Z,-0.11
2023-02-11T00:44:34.804Z,-0.17
2023-02-11T00:47:37.109Z,-0.20
2023-02-11T00:50:39.444Z,-0.20
2023-02-11T00:53:41.665Z,-0.26
2023-02-11T00:56:43.968Z,-0.34
2023-02-11T00:59:46.293Z,-0.32
2023-02-11T01:02:48.721Z,-0.38
2023-02-11T01:05:51.371Z,-0.28
2023-02-11T01:08:53.963Z,-0.19
2023-02-11T01:11:56.324Z,0.03
2023-02-11T01:14:58.967Z,0.23
2023-02-11T01:18:01.555Z,0.52
2023-02-11T01:21:04.565Z,0.69
2023-02-11T01:24:07.106Z,0.69
2023-02-11T01:27:09.458Z,0.54
2023-02-11T01:30:13.908Z,0.33
2023-02-11T01:33:16.695Z,0.04
2023-02-11T01:36:19.077Z,-0.01
2023-02-11T01:39:21.479Z,-0.15
2023-02-11T01:42:24.372Z,-0.05
2023-02-11T01:45:45.059Z,0.10
2023-02-11T01:48:57.781Z,-0.04
2023-02-11T01:52:06.124Z,-0.04
2023-02-11T01:55:37.602Z,-0.23
2023-02-11T01:58:41.938Z,-0.34
2023-02-11T02:01:47.988Z,-0.23
2023-02-11T02:05:00.281Z,-0.25
2023-02-11T02:08:15.228Z,-0.44
2023-02-11T02:11:17.860Z,-0.50
2023-02-11T02:14:20.434Z,-0.42
2023-02-11T02:17:38.425Z,-0.43
2023-02-11T02:21:19.252Z,-0.49
2023-02-11T02:24:40.279Z,-0.45
2023-02-11T02:28:01.339Z,-0.74
2023-02-11T02:31:30.891Z,-0.73
2023-02-11T02:34:44.301Z,-0.68
2023-02-11T02:38:07.342Z,-0.61
2023-02-11T02:41:12.264Z,-0.69
2023-02-11T02:44:14.575Z,-0.69
2023-02-11T02:47:16.965Z,-0.80
2023-02-11T02:50:25.164Z,-0.92
2023-02-11T02:53:35.028Z,-1.08
2023-02-11T02:56:57.802Z,-1.04
2023-02-11T03:00:14.940Z,-0.98
2023-02-11T03:03:34.377Z,-1.00
2023-02-11T03:06:42.569Z,-1.19
2023-02-11T03:10:04.364Z,-1.29
2023-02-11T03:13:07.843Z,-1.11
2023-02-11T03:16:14.891Z,-1.19
2023-02-11T03:19:34.162Z,-1.14
2023-02-11T03:22:48.716Z,-1.08
2023-02-11T03:25:57.015Z,-1.27
2023-02-11T03:28:59.217Z,-1.15
2023-02-11T03:32:12.420Z,-1.18
2023-02-11T03:35:23.971Z,-1.31
2023-02-11T03:38:36.450Z,-1.03
2023-02-11T03:41:41.081Z,-0.98
2023-02-11T03:44:52.024Z,-1.12
2023-02-11T03:48:03.504Z,-0.99
2023-02-11T03:51:08.350Z,-0.86
2023-02-11T03:54:14.202Z,-0.93
2023-02-11T03:57:16.715Z,-0.97
2023-02-11T04:00:19.410Z,-1.04
2023-02-11T04:03:21.856Z,-1.05
2023-02-11T04:06:24.180Z,-1.02
2023-02-11T04:09:26.503Z,-1.04
2023-02-11T04:12:28.812Z,-1.16
2023-02-11T04:15:31.140Z,-1.12
2023-02-11T04:18:33.463Z,-0.91
2023-02-11T04:21:35.784Z,-0.97
2023-02-11T04:24:38.109Z,-1.14
2023-02-11T04:27:40.498Z,-0.90
2023-02-11T04:30:42.865Z,-0.99
2023-02-11T04:33:45.274Z,-0.94
2023-02-11T04:36:47.605Z,-0.98
2023-02-11T04:39:49.898Z,-0.94
2023-02-11T04:42:52.691Z,-0.98
2023-02-11T04:45:58.975Z,-0.91
2023-02-11T04:49:01.418Z,-1.00
2023-02-11T04:52:03.746Z,-1.02
2023-02-11T04:55:06.609Z,-0.91
2023-02-11T04:58:08.943Z,-1.05
2023-02-11T05:01:13.940Z,-1.05
2023-02-11T05:04:16.803Z,-1.25
2023-02-11T05:07:19.154Z,-1.19
2023-02-11T05:10:21.483Z,-1.28
2023-02-11T05:13:23.998Z,-1.37
2023-02-11T05:16:26.242Z,-1.30
2023-02-11T05:19:28.543Z,-1.32
2023-02-11T05:22:30.877Z,-1.38
2023-02-11T05:25:33.297Z,-1.35
2023-02-11T05:28:35.866Z,-1.41
2023-02-11T05:31:38.286Z,-1.71
2023-02-11T05:34:40.599Z,-1.56
2023-02-11T05:37:42.943Z,-1.69
2023-02-11T05:40:45.241Z,-1.57
2023-02-11T05:43:51.253Z,-1.57
2023-02-11T05:46:53.583Z,-1.74
2023-02-11T05:49:55.866Z,-1.69
2023-02-11T05:52:58.112Z,-1.84
2023-02-11T05:56:00.952Z,-1.89
2023-02-11T05:59:03.368Z,-2.06
2023-02-11T06:02:05.743Z,-1.83
2023-02-11T06:05:08.502Z,-1.84
2023-02-11T06:08:11.164Z,-1.81
2023-02-11T06:11:15.935Z,-1.70
2023-02-11T06:14:18.271Z,-1.90
2023-02-11T06:17:20.602Z,-1.66
2023-02-11T06:20:22.994Z,-1.50
2023-02-11T06:23:25.485Z,-1.24
2023-02-11T06:26:27.818Z,-1.21
2023-02-11T06:29:30.117Z,-1.06
2023-02-11T06:32:49.376Z,-0.91
2023-02-11T06:35:52.151Z,-0.93
2023-02-11T06:38:56.535Z,-0.98
2023-02-11T06:41:59.078Z,-1.09
2023-02-11T06:45:01.592Z,-0.70
2023-02-11T06:48:04.263Z,-0.66
2023-02-11T06:51:09.662Z,-0.37
2023-02-11T06:54:12.651Z,-0.60
2023-02-11T06:57:16.217Z,-0.32
2023-02-11T07:00:19.580Z,-0.15
2023-02-11T07:03:22.287Z,0.02
2023-02-11T07:06:28.102Z,-0.18
2023-02-11T07:09:32.959Z,0.24
2023-02-11T07:12:35.271Z,0.07
2023-02-11T07:15:38.355Z,0.09
2023-02-11T07:18:41.452Z,0.13
2023-02-11T07:21:43.751Z,-0.09
2023-02-11T07:24:46.409Z,0.23
2023-02-11T07:27:50.268Z,0.22
2023-02-11T07:30:52.634Z,0.79
2023-02-11T07:33:58.276Z,1.32
2023-02-11T07:37:00.603Z,1.48
2023-02-11T07:40:03.324Z,1.88
2023-02-11T07:43:05.657Z,2.28
2023-02-11T07:46:11.474Z,2.57
2023-02-11T07:49:15.821Z,2.74
2023-02-11T07:52:18.736Z,2.49
2023-02-11T07:55:21.669Z,2.54
2023-02-11T07:58:23.968Z,2.43
2023-02-11T08:01:29.676Z,2.62
2023-02-11T08:04:32.172Z,2.46
2023-02-11T08:07:34.576Z,2.66
2023-02-11T08:10:37.248Z,2.47
2023-02-11T08:13:40.042Z,2.36
2023-02-11T08:16:42.487Z,2.09
2023-02-11T08:19:44.987Z,2.49
2023-02-11T08:22:47.508Z,2.51
2023-02-11T08:25:51.015Z,2.61
2023-02-11T08:28:54.884Z,2.58
2023-02-11T08:31:57.250Z,2.47
2023-02-11T08:34:59.631Z,2.52
2023-02-11T08:38:01.936Z,2.62
2023-02-11T08:41:04.887Z,2.70
2023-02-11T08:44:08.239Z,2.68
2023-02-11T08:47:10.669Z,2.73
2023-02-11T08:50:12.929Z,2.78
2023-02-11T08:53:15.254Z,2.57
2023-02-11T08:56:19.524Z,2.97
2023-02-11T08:59:21.928Z,2.96
2023-02-11T09:02:24.394Z,3.27
2023-02-11T09:05:27.679Z,3.61
2023-02-11T09:08:29.945Z,3.71
2023-02-11T09:11:35.069Z,3.96
2023-02-11T09:14:38.460Z,4.35
2023-02-11T09:17:40.993Z,4.14
2023-02-11T09:20:43.414Z,4.44
2023-02-11T09:23:48.001Z,4.53
2023-02-11T09:26:50.463Z,4.65
2023-02-11T09:29:53.262Z,5.12
2023-02-11T09:32:56.772Z,5.35
2023-02-11T09:36:03.242Z,5.96
2023-02-11T09:39:07.840Z,6.25
2023-02-11T09:42:13.614Z,6.45
2023-02-11T09:45:21.819Z,6.28
2023-02-11T09:48:24.357Z,6.49
2023-02-11T09:51:40.167Z,6.69
2023-02-11T09:54:57.680Z,6.80
2023-02-11T09:58:04.415Z,6.89
2023-02-11T10:01:13.281Z,7.03
2023-02-11T10:04:40.345Z,7.20
2023-02-11T10:08:14.622Z,6.72
2023-02-11T10:11:32.655Z,6.83
2023-02-11T10:14:48.494Z,6.78
2023-02-11T10:18:15.393Z,6.89
2023-02-11T10:21:36.701Z,7.05
2023-02-11T10:24:39.333Z,6.97
2023-02-11T10:27:42.994Z,6.85
2023-02-11T10:31:01.209Z,7.08
2023-02-11T10:34:11.248Z,7.11
2023-02-11T10:37:14.111Z,6.96
2023-02-11T10:40:25.555Z,7.38
2023-02-11T10:43:30.110Z,7.62
2023-02-11T10:46:34.240Z,7.45
2023-02-11T10:49:42.231Z,7.66
2023-02-11T10:52:44.663Z,7.48
2023-02-11T10:55:55.748Z,7.62
2023-02-11T10:59:22.155Z,8.00
2023-02-11T11:02:35.661Z,8.64
2023-02-11T11:05:53.282Z,8.98
2023-02-11T11:08:56.180Z,8.68
2023-02-11T11:11:58.673Z,7.87
2023-02-11T11:15:23.526Z,7.78
2023-02-11T11:18:25.814Z,7.80
2023-02-11T11:21:43.442Z,8.26
2023-02-11T11:24:46.878Z,7.98
2023-02-11T11:27:53.852Z,7.86
2023-02-11T11:30:57.268Z,7.67
2023-02-11T11:34:01.588Z,7.49
2023-02-11T11:37:22.467Z,7.40
2023-02-11T11:40:27.526Z,7.66
2023-02-11T11:43:29.777Z,8.26
2023-02-11T11:46:38.450Z,8.38
2023-02-11T11:49:59.585Z,8.92
2023-02-11T11:53:07.897Z,9.01
2023-02-11T11:56:25.354Z,8.46
2023-02-11T11:59:28.068Z,8.54
2023-02-11T12:03:19.428Z,8.84
2023-02-11T12:06:36.508Z,8.80
2023-02-11T12:09:49.508Z,8.39
2023-02-11T12:13:08.150Z,8.52
2023-02-11T12:16:25.711Z,8.60
2023-02-11T12:20:12.911Z,8.76
2023-02-11T12:23:40.212Z,8.65
2023-02-11T12:26:48.006Z,8.50
2023-02-11T12:30:11.982Z,8.37
2023-02-11T12:33:36.255Z,8.67
2023-02-11T12:36:45.226Z,9.09
2023-02-11T12:40:10.415Z,9.00
2023-02-11T12:43:21.404Z,9.07
2023-02-11T12:46:39.199Z,9.07
2023-02-11T12:49:45.587Z,9.07
2023-02-11T12:52:53.899Z,9.35
2023-02-11T12:56:00.969Z,9.14
2023-02-11T12:59:05.677Z,9.40
2023-02-11T13:02:43.928Z,9.63
2023-02-11T13:05:53.036Z,9.19
2023-02-11T13:09:00.854Z,9.27
2023-02-11T13:12:23.171Z,9.13
2023-02-11T13:15:26.223Z,9.26
2023-02-11T13:18:40.579Z,8.99
2023-02-11T13:22:12.187Z,9.23
2023-02-11T13:25:36.208Z,9.54
2023-02-11T13:28:44.589Z,9.21
2023-02-11T13:31:57.305Z,9.23
2023-02-11T13:34:59.820Z,9.23
2023-02-11T13:38:13.230Z,9.12
2023-02-11T13:41:18.470Z,9.15
2023-02-11T13:44:24.278Z,9.12
2023-02-11T13:47:34.126Z,8.88
2023-02-11T13:50:39.622Z,8.61
2023-02-11T13:53:54.997Z,8.54
2023-02-11T13:57:22.373Z,8.26
2023-02-11T14:00:33.680Z,8.29
2023-02-11T14:03:56.527Z,8.10
2023-02-11T14:07:42.550Z,8.14
2023-02-11T14:10:44.775Z,8.06
2023-02-11T14:13:47.033Z,8.10
2023-02-11T14:17:19.054Z,7.99
2023-02-11T14:20:37.524Z,7.97
2023-02-11T14:23:40.892Z,8.08
2023-02-11T14:26:59.449Z,8.05
2023-02-11T14:30:20.971Z,7.91
2023-02-11T14:33:38.539Z,7.94
2023-02-11T14:36:53.166Z,8.07
2023-02-11T14:40:01.101Z,8.13
2023-02-11T14:43:25.925Z,8.12
2023-02-11T14:46:33.106Z,7.93
2023-02-11T14:49:38.790Z,8.08
2023-02-11T14:52:42.456Z,8.11
2023-02-11T14:55:48.385Z,8.06
2023-02-11T14:58:54.301Z,7.94
2023-02-11T15:01:56.850Z,8.02
2023-02-11T15:05:16.701Z,8.06
2023-02-11T15:08:19.493Z,8.09
2023-02-11T15:11:24.236Z,7.95
2023-02-11T15:14:29.085Z,8.05
2023-02-11T15:17:32.888Z,8.02
2023-02-11T15:20:36.059Z,8.02
2023-02-11T15:23:40.659Z,7.85
2023-02-11T15:26:43.012Z,7.74
2023-02-11T15:29:51.225Z,7.80
2023-02-11T15:32:58.175Z,7.84
2023-02-11T15:36:00.856Z,7.80
2023-02-11T15:39:32.829Z,7.83
2023-02-11T15:42:50.608Z,7.67
2023-02-11T15:46:00.987Z,7.53
2023-02-11T15:49:03.359Z,7.68
2023-02-11T15:52:08.323Z,7.63
2023-02-11T15:55:14.333Z,7.51
2023-02-11T15:58:16.739Z,7.46
2023-02-11T16:01:19.179Z,7.44
2023-02-11T16:04:24.980Z,7.49
2023-02-11T16:07:37.787Z,7.42
2023-02-11T16:10:40.510Z,7.21
2023-02-11T16:13:47.286Z,7.24
2023-02-11T16:16:52.199Z,7.19
2023-02-11T16:19:54.850Z,7.17
2023-02-11T16:22:57.208Z,7.24
2023-02-11T16:26:05.586Z,7.27
2023-02-11T16:29:13.993Z,7.28
2023-02-11T16:32:35.026Z,7.23
2023-02-11T16:35:37.698Z,7.31
2023-02-11T16:38:40.764Z,7.13
2023-02-11T16:41:43.323Z,7.08
2023-02-11T16:44:45.597Z,7.16
2023-02-11T16:47:47.902Z,7.13
2023-02-11T16:50:53.298Z,7.02
2023-02-11T16:53:55.912Z,6.93
2023-02-11T16:56:58.701Z,7.02
2023-02-11T17:00:01.151Z,7.00
2023-02-11T17:03:07.317Z,6.92
2023-02-11T17:06:11.169Z,6.87
2023-02-11T17:09:26.279Z,6.86
2023-02-11T17:12:30.024Z,6.74
2023-02-11T17:15:32.582Z,6.73
2023-02-11T17:18:35.998Z,6.70
2023-02-11T17:21:39.015Z,6.79
2023-02-11T17:24:41.427Z,6.74
2023-02-11T17:27:44.126Z,6.77
2023-02-11T17:30:46.543Z,6.79
2023-02-11T17:33:48.935Z,6.91
2023-02-11T17:36:51.897Z,6.89
2023-02-11T17:39:54.243Z,6.90
2023-02-11T17:42:56.579Z,6.91
2023-02-11T17:45:59.288Z,6.83
2023-02-11T17:49:02.674Z,6.85
2023-02-11T17:52:05.420Z,6.79
2023-02-11T17:55:08.021Z,6.71
2023-02-11T17:58:10.366Z,6.82
2023-02-11T18:01:12.741Z,6.72
2023-02-11T18:04:18.957Z,6.81
2023-02-11T18:07:21.383Z,6.87
2023-02-11T18:10:23.762Z,6.86
2023-02-11T18:13:26.887Z,6.82
2023-02-11T18:16:30.535Z,6.73
2023-02-11T18:19:35.260Z,6.71
2023-02-11T18:22:40.275Z,6.61
2023-02-11T18:25:42.694Z,6.62
2023-02-11T18:28:46.068Z,6.61
2023-02-11T18:31:48.757Z,6.71
2023-02-11T18:34:51.104Z,6.67
2023-02-11T18:37:53.621Z,6.38
2023-02-11T18:40:57.633Z,6.39
2023-02-11T18:44:03.372Z,6.51
2023-02-11T18:47:05.943Z,6.45
2023-02-11T18:50:10.016Z,6.47
2023-02-11T18:53:13.496Z,6.56
2023-02-11T18:56:18.739Z,6.45
2023-02-11T18:59:21.201Z,6.36
2023-02-11T19:02:24.999Z,6.42
2023-02-11T19:05:28.864Z,6.44
2023-02-11T19:08:31.199Z,6.37
2023-02-11T19:11:52.368Z,6.38
2023-02-11T19:14:54.733Z,6.29
2023-02-11T19:17:57.181Z,6.12
2023-02-11T19:20:59.641Z,6.22
2023-02-11T19:24:07.481Z,6.43
2023-02-11T19:27:10.015Z,6.46
2023-02-11T19:30:12.605Z,6.46
2023-02-11T19:33:14.880Z,6.50
2023-02-11T19:36:18.628Z,6.45
2023-02-11T19:39:21.095Z,6.51
2023-02-11T19:42:25.827Z,6.51
2023-02-11T19:45:29.468Z,6.42
2023-02-11T19:48:32.005Z,6.33
2023-02-11T19:51:35.747Z,6.45
2023-02-11T19:54:38.337Z,6.60
2023-02-11T19:57:40.775Z,6.61
2023-02-11T20:00:43.579Z,6.76
2023-02-11T20:03:52.384Z,6.75
2023-02-11T20:06:54.769Z,6.80
2023-02-11T20:09:57.134Z,6.84
2023-02-11T20:12:59.490Z,6.72
2023-02-11T20:16:12.456Z,6.76
2023-02-11T20:19:18.346Z,6.85
2023-02-11T20:22:20.810Z,6.89
2023-02-11T20:25:23.247Z,6.95
2023-02-11T20:28:26.013Z,6.83
2023-02-11T20:31:29.920Z,6.89
2023-02-11T20:34:32.735Z,6.73
2023-02-11T20:37:35.157Z,6.66
2023-02-11T20:40:38.530Z,6.70
2023-02-11T20:43:42.125Z,6.62
2023-02-11T20:46:49.038Z,6.71
2023-02-11T20:49:51.572Z,6.74
2023-02-11T20:52:53.834Z,6.78
2023-02-11T20:55:56.398Z,6.71
2023-02-11T20:59:00.046Z,6.81
2023-02-11T21:02:02.488Z,6.70
2023-02-11T21:05:05.187Z,6.78
2023-02-11T21:08:07.475Z,6.76
2023-02-11T21:11:09.950Z,6.65
2023-02-11T21:14:12.915Z,6.62
2023-02-11T21:17:15.383Z,6.47
2023-02-11T21:20:17.890Z,6.41
2023-02-11T21:23:20.295Z,6.57
2023-02-11T21:26:22.762Z,6.75
2023-02-11T21:29:25.080Z,6.78
2023-02-11T21:32:27.518Z,6.74
2023-02-11T21:35:35.099Z,6.86
2023-02-11T21:38:37.439Z,6.90
2023-02-11T21:41:40.443Z,7.00
2023-02-11T21:44:42.807Z,7.00
2023-02-11T21:47:45.097Z,6.87
2023-02-11T21:50:47.782Z,6.82
2023-02-11T21:53:54.898Z,6.57
2023-02-11T21:56:57.429Z,6.71
2023-02-11T21:59:59.808Z,6.63
2023-02-11T22:03:02.135Z,6.66
2023-02-11T22:06:12.659Z,6.53
2023-02-11T22:09:15.016Z,6.56
2023-02-11T22:12:17.341Z,6.63
2023-02-11T22:15:20.036Z,6.52
2023-02-11T22:18:22.369Z,6.44
2023-02-11T22:21:25.139Z,6.53
2023-02-11T22:24:27.848Z,6.51
2023-02-11T22:27:30.226Z,6.47
2023-02-11T22:30:32.533Z,6.37
2023-02-11T22:33:34.851Z,6.19
2023-02-11T22:36:39.501Z,6.18
2023-02-11T22:39:42.774Z,6.22
2023-02-11T22:42:45.098Z,5.98
2023-02-11T22:45:48.268Z,5.77
2023-02-11T22:48:50.903Z,6.01
2023-02-11T22:51:53.189Z,5.99
2023-02-11T22:54:55.495Z,5.99
2023-02-11T22:57:57.788Z,6.01
2023-02-11T23:01:00.155Z,6.15
2023-02-11T23:04:05.121Z,6.02
2023-02-11T23:07:07.424Z,6.03
2023-02-11T23:10:10.494Z,5.94
2023-02-11T23:13:12.831Z,6.08
2023-02-11T23:16:20.998Z,6.03
2023-02-11T23:19:23.913Z,6.01
2023-02-11T23:22:26.190Z,6.11
2023-02-11T23:25:28.598Z,5.95
2023-02-11T23:28:31.050Z,5.94
2023-02-11T23:31:37.961Z,6.05
2023-02-11T23:34:40.414Z,6.17
2023-02-11T23:37:42.732Z,5.94
2023-02-11T23:40:45.085Z,6.01
2023-02-11T23:43:52.054Z,5.97
2023-02-11T23:46:54.376Z,6.05
2023-02-11T23:49:59.388Z,5.96
2023-02-11T23:53:02.043Z,6.04
2023-02-11T23:56:14.019Z,6.07
2023-02-11T23:59:17.190Z,6.16
